<?xml version="1.0" encoding="UTF-8" standalone="no" ?>
<gpx xmlns="http://www.topografix.com/GPX/1/1" xmlns:xsi="http://www.w3.org/2001/XMLSchema-instance" xsi:schemaLocation="http://www.topografix.com/GPX/1/1 http://www.topografix.com/GPX/1/1/gpx.xsd" version="1.1" creator="VisuGPX - https://www.visugpx.com">
  <metadata>
    <name>Réserve des étangs de Mépieu</name>
    <desc><![CDATA[Tour de la réserve des étangs de Mépieu au départ du Bayard]]></desc>
  </metadata>
  <trk>
    <name><![CDATA[ACTIVE LOG130147]]></name>
    <trkseg>
      <trkpt lat="45.78732" lon="5.44343">
        <ele>230.371</ele>
        <time>2016-06-18T13:11:24Z</time>
      </trkpt>
      <trkpt lat="45.78701" lon="5.44362">
        <ele>230.141</ele>
        <time>2016-06-18T13:13:42Z</time>
      </trkpt>
      <trkpt lat="45.78685" lon="5.44366">
        <ele>230.527</ele>
        <time>2016-06-18T13:13:46Z</time>
      </trkpt>
      <trkpt lat="45.78638" lon="5.44362">
        <ele>232.651</ele>
        <time>2016-06-18T13:14:00Z</time>
      </trkpt>
      <trkpt lat="45.78591" lon="5.44375">
        <ele>233.692</ele>
        <time>2016-06-18T13:14:13Z</time>
      </trkpt>
      <trkpt lat="45.78538" lon="5.4441">
        <ele>235.198</ele>
        <time>2016-06-18T13:14:31Z</time>
      </trkpt>
      <trkpt lat="45.78503" lon="5.4443">
        <ele>236.482</ele>
        <time>2016-06-18T13:14:44Z</time>
      </trkpt>
      <trkpt lat="45.78438" lon="5.44458">
        <ele>238.464</ele>
        <time>2016-06-18T13:15:07Z</time>
      </trkpt>
      <trkpt lat="45.78392" lon="5.44472">
        <ele>240.182</ele>
        <time>2016-06-18T13:15:25Z</time>
      </trkpt>
      <trkpt lat="45.78345" lon="5.44481">
        <ele>240.322</ele>
        <time>2016-06-18T13:15:40Z</time>
      </trkpt>
      <trkpt lat="45.78281" lon="5.44474">
        <ele>239.283</ele>
        <time>2016-06-18T13:15:56Z</time>
      </trkpt>
      <trkpt lat="45.78221" lon="5.44424">
        <ele>238.715</ele>
        <time>2016-06-18T13:16:13Z</time>
      </trkpt>
      <trkpt lat="45.78163" lon="5.4434">
        <ele>237.785</ele>
        <time>2016-06-18T13:16:30Z</time>
      </trkpt>
      <trkpt lat="45.7813" lon="5.44288">
        <ele>237.653</ele>
        <time>2016-06-18T13:16:41Z</time>
      </trkpt>
      <trkpt lat="45.78121" lon="5.44274">
        <ele>236.895</ele>
        <time>2016-06-18T13:16:44Z</time>
      </trkpt>
      <trkpt lat="45.78116" lon="5.44261">
        <ele>236.9</ele>
        <time>2016-06-18T13:16:46Z</time>
      </trkpt>
      <trkpt lat="45.78118" lon="5.44185">
        <ele>237.967</ele>
        <time>2016-06-18T13:17:00Z</time>
      </trkpt>
      <trkpt lat="45.7813" lon="5.44126">
        <ele>239.64</ele>
        <time>2016-06-18T13:17:17Z</time>
      </trkpt>
      <trkpt lat="45.7813" lon="5.44109">
        <ele>239.952</ele>
        <time>2016-06-18T13:17:33Z</time>
      </trkpt>
      <trkpt lat="45.7813" lon="5.44094">
        <ele>240.715</ele>
        <time>2016-06-18T13:17:53Z</time>
      </trkpt>
      <trkpt lat="45.78127" lon="5.4407">
        <ele>239.344</ele>
        <time>2016-06-18T13:18:00Z</time>
      </trkpt>
      <trkpt lat="45.78112" lon="5.44067">
        <ele>238.678</ele>
        <time>2016-06-18T13:18:02Z</time>
      </trkpt>
      <trkpt lat="45.78095" lon="5.44048">
        <ele>237.5</ele>
        <time>2016-06-18T13:18:06Z</time>
      </trkpt>
      <trkpt lat="45.78031" lon="5.44017">
        <ele>234.897</ele>
        <time>2016-06-18T13:18:16Z</time>
      </trkpt>
      <trkpt lat="45.78016" lon="5.43996">
        <ele>234.974</ele>
        <time>2016-06-18T13:18:20Z</time>
      </trkpt>
      <trkpt lat="45.78013" lon="5.43984">
        <ele>235.267</ele>
        <time>2016-06-18T13:18:22Z</time>
      </trkpt>
      <trkpt lat="45.78009" lon="5.43973">
        <ele>236.062</ele>
        <time>2016-06-18T13:18:24Z</time>
      </trkpt>
      <trkpt lat="45.77968" lon="5.43855">
        <ele>235.975</ele>
        <time>2016-06-18T13:18:45Z</time>
      </trkpt>
      <trkpt lat="45.77924" lon="5.43742">
        <ele>236.453</ele>
        <time>2016-06-18T13:19:05Z</time>
      </trkpt>
      <trkpt lat="45.77872" lon="5.43609">
        <ele>235.906</ele>
        <time>2016-06-18T13:19:28Z</time>
      </trkpt>
      <trkpt lat="45.77823" lon="5.43468">
        <ele>236.976</ele>
        <time>2016-06-18T13:19:54Z</time>
      </trkpt>
      <trkpt lat="45.77786" lon="5.4335">
        <ele>237.233</ele>
        <time>2016-06-18T13:20:17Z</time>
      </trkpt>
      <trkpt lat="45.77777" lon="5.43327">
        <ele>237.323</ele>
        <time>2016-06-18T13:20:22Z</time>
      </trkpt>
      <trkpt lat="45.77728" lon="5.43327">
        <ele>236.67</ele>
        <time>2016-06-18T13:20:33Z</time>
      </trkpt>
      <trkpt lat="45.77621" lon="5.4334">
        <ele>237.008</ele>
        <time>2016-06-18T13:20:55Z</time>
      </trkpt>
      <trkpt lat="45.77571" lon="5.43341">
        <ele>236.184</ele>
        <time>2016-06-18T13:21:09Z</time>
      </trkpt>
      <trkpt lat="45.77562" lon="5.43345">
        <ele>236.646</ele>
        <time>2016-06-18T13:21:13Z</time>
      </trkpt>
      <trkpt lat="45.7756" lon="5.43337">
        <ele>237.74</ele>
        <time>2016-06-18T13:21:15Z</time>
      </trkpt>
      <trkpt lat="45.77552" lon="5.43339">
        <ele>236.168</ele>
        <time>2016-06-18T13:21:18Z</time>
      </trkpt>
      <trkpt lat="45.77493" lon="5.43325">
        <ele>235.568</ele>
        <time>2016-06-18T13:21:30Z</time>
      </trkpt>
      <trkpt lat="45.77439" lon="5.43302">
        <ele>235.198</ele>
        <time>2016-06-18T13:21:41Z</time>
      </trkpt>
      <trkpt lat="45.77421" lon="5.43292">
        <ele>235.145</ele>
        <time>2016-06-18T13:21:45Z</time>
      </trkpt>
      <trkpt lat="45.7736" lon="5.43248">
        <ele>234.786</ele>
        <time>2016-06-18T13:22:01Z</time>
      </trkpt>
      <trkpt lat="45.77291" lon="5.43172">
        <ele>234.561</ele>
        <time>2016-06-18T13:22:17Z</time>
      </trkpt>
      <trkpt lat="45.77287" lon="5.43167">
        <ele>234.561</ele>
        <time>2016-06-18T13:22:18Z</time>
      </trkpt>
      <trkpt lat="45.77271" lon="5.43142">
        <ele>234.601</ele>
        <time>2016-06-18T13:22:23Z</time>
      </trkpt>
      <trkpt lat="45.77251" lon="5.43111">
        <ele>234.762</ele>
        <time>2016-06-18T13:22:29Z</time>
      </trkpt>
      <trkpt lat="45.77221" lon="5.4306">
        <ele>234.384</ele>
        <time>2016-06-18T13:22:43Z</time>
      </trkpt>
      <trkpt lat="45.77218" lon="5.43054">
        <ele>234.601</ele>
        <time>2016-06-18T13:22:45Z</time>
      </trkpt>
      <trkpt lat="45.77187" lon="5.43078">
        <ele>235.122</ele>
        <time>2016-06-18T13:22:56Z</time>
      </trkpt>
      <trkpt lat="45.77175" lon="5.43093">
        <ele>235.201</ele>
        <time>2016-06-18T13:23:00Z</time>
      </trkpt>
      <trkpt lat="45.77177" lon="5.43112">
        <ele>235.655</ele>
        <time>2016-06-18T13:23:05Z</time>
      </trkpt>
      <trkpt lat="45.77195" lon="5.43154">
        <ele>234.715</ele>
        <time>2016-06-18T13:23:15Z</time>
      </trkpt>
      <trkpt lat="45.77164" lon="5.43166">
        <ele>234.836</ele>
        <time>2016-06-18T13:23:27Z</time>
      </trkpt>
      <trkpt lat="45.77118" lon="5.43214">
        <ele>237.161</ele>
        <time>2016-06-18T13:23:45Z</time>
      </trkpt>
      <trkpt lat="45.77073" lon="5.43257">
        <ele>239.79</ele>
        <time>2016-06-18T13:24:03Z</time>
      </trkpt>
      <trkpt lat="45.77049" lon="5.43406">
        <ele>239.574</ele>
        <time>2016-06-18T13:24:23Z</time>
      </trkpt>
      <trkpt lat="45.77082" lon="5.43413">
        <ele>237.962</ele>
        <time>2016-06-18T13:24:27Z</time>
      </trkpt>
      <trkpt lat="45.77058" lon="5.43421">
        <ele>237.6</ele>
        <time>2016-06-18T13:24:32Z</time>
      </trkpt>
      <trkpt lat="45.77049" lon="5.43402">
        <ele>238.028</ele>
        <time>2016-06-18T13:24:36Z</time>
      </trkpt>
      <trkpt lat="45.77005" lon="5.43228">
        <ele>239.653</ele>
        <time>2016-06-18T13:25:05Z</time>
      </trkpt>
      <trkpt lat="45.76972" lon="5.43145">
        <ele>238.453</ele>
        <time>2016-06-18T13:25:20Z</time>
      </trkpt>
      <trkpt lat="45.76943" lon="5.43059">
        <ele>236.554</ele>
        <time>2016-06-18T13:25:35Z</time>
      </trkpt>
      <trkpt lat="45.76913" lon="5.42952">
        <ele>236.186</ele>
        <time>2016-06-18T13:25:53Z</time>
      </trkpt>
      <trkpt lat="45.76911" lon="5.42943">
        <ele>235.975</ele>
        <time>2016-06-18T13:25:54Z</time>
      </trkpt>
      <trkpt lat="45.76905" lon="5.42919">
        <ele>235.238</ele>
        <time>2016-06-18T13:25:57Z</time>
      </trkpt>
      <trkpt lat="45.76852" lon="5.42829">
        <ele>235.436</ele>
        <time>2016-06-18T13:26:12Z</time>
      </trkpt>
      <trkpt lat="45.76782" lon="5.42741">
        <ele>234.086</ele>
        <time>2016-06-18T13:26:30Z</time>
      </trkpt>
      <trkpt lat="45.76766" lon="5.4271">
        <ele>234.944</ele>
        <time>2016-06-18T13:26:35Z</time>
      </trkpt>
      <trkpt lat="45.76742" lon="5.42649">
        <ele>235.238</ele>
        <time>2016-06-18T13:26:46Z</time>
      </trkpt>
      <trkpt lat="45.76728" lon="5.42621">
        <ele>235.375</ele>
        <time>2016-06-18T13:26:52Z</time>
      </trkpt>
      <trkpt lat="45.76715" lon="5.42604">
        <ele>235.824</ele>
        <time>2016-06-18T13:26:56Z</time>
      </trkpt>
      <trkpt lat="45.76698" lon="5.42592">
        <ele>236.155</ele>
        <time>2016-06-18T13:27:00Z</time>
      </trkpt>
      <trkpt lat="45.76685" lon="5.42585">
        <ele>236.239</ele>
        <time>2016-06-18T13:27:03Z</time>
      </trkpt>
      <trkpt lat="45.76674" lon="5.42578">
        <ele>235.883</ele>
        <time>2016-06-18T13:27:06Z</time>
      </trkpt>
      <trkpt lat="45.76665" lon="5.42573">
        <ele>236.678</ele>
        <time>2016-06-18T13:27:08Z</time>
      </trkpt>
      <trkpt lat="45.76617" lon="5.42536">
        <ele>237.13</ele>
        <time>2016-06-18T13:27:21Z</time>
      </trkpt>
      <trkpt lat="45.76568" lon="5.42504">
        <ele>236.464</ele>
        <time>2016-06-18T13:27:33Z</time>
      </trkpt>
      <trkpt lat="45.76489" lon="5.4246">
        <ele>236.147</ele>
        <time>2016-06-18T13:27:50Z</time>
      </trkpt>
      <trkpt lat="45.76431" lon="5.42463">
        <ele>236.408</ele>
        <time>2016-06-18T13:28:02Z</time>
      </trkpt>
      <trkpt lat="45.76377" lon="5.42482">
        <ele>236.422</ele>
        <time>2016-06-18T13:28:14Z</time>
      </trkpt>
      <trkpt lat="45.76342" lon="5.4246">
        <ele>236.163</ele>
        <time>2016-06-18T13:28:25Z</time>
      </trkpt>
      <trkpt lat="45.76331" lon="5.42453">
        <ele>236.033</ele>
        <time>2016-06-18T13:28:27Z</time>
      </trkpt>
      <trkpt lat="45.76285" lon="5.42467">
        <ele>235.79</ele>
        <time>2016-06-18T13:28:38Z</time>
      </trkpt>
      <trkpt lat="45.76235" lon="5.42463">
        <ele>235.793</ele>
        <time>2016-06-18T13:28:48Z</time>
      </trkpt>
      <trkpt lat="45.76142" lon="5.42467">
        <ele>235.97</ele>
        <time>2016-06-18T13:29:05Z</time>
      </trkpt>
      <trkpt lat="45.76122" lon="5.42468">
        <ele>236.863</ele>
        <time>2016-06-18T13:29:10Z</time>
      </trkpt>
      <trkpt lat="45.76075" lon="5.4252">
        <ele>239.907</ele>
        <time>2016-06-18T13:29:26Z</time>
      </trkpt>
      <trkpt lat="45.76036" lon="5.42591">
        <ele>240.898</ele>
        <time>2016-06-18T13:29:41Z</time>
      </trkpt>
      <trkpt lat="45.76027" lon="5.42605">
        <ele>240.562</ele>
        <time>2016-06-18T13:29:44Z</time>
      </trkpt>
      <trkpt lat="45.76008" lon="5.42617">
        <ele>241.207</ele>
        <time>2016-06-18T13:29:49Z</time>
      </trkpt>
      <trkpt lat="45.75912" lon="5.42634">
        <ele>240.797</ele>
        <time>2016-06-18T13:30:09Z</time>
      </trkpt>
      <trkpt lat="45.75843" lon="5.42644">
        <ele>241.577</ele>
        <time>2016-06-18T13:30:24Z</time>
      </trkpt>
      <trkpt lat="45.75765" lon="5.4265">
        <ele>240.337</ele>
        <time>2016-06-18T13:30:41Z</time>
      </trkpt>
      <trkpt lat="45.75679" lon="5.42664">
        <ele>240.588</ele>
        <time>2016-06-18T13:31:00Z</time>
      </trkpt>
      <trkpt lat="45.75627" lon="5.42696">
        <ele>241.97</ele>
        <time>2016-06-18T13:31:16Z</time>
      </trkpt>
      <trkpt lat="45.75621" lon="5.42711">
        <ele>242.507</ele>
        <time>2016-06-18T13:31:20Z</time>
      </trkpt>
      <trkpt lat="45.75608" lon="5.42702">
        <ele>243.997</ele>
        <time>2016-06-18T13:31:25Z</time>
      </trkpt>
      <trkpt lat="45.75572" lon="5.42626">
        <ele>244.766</ele>
        <time>2016-06-18T13:31:45Z</time>
      </trkpt>
      <trkpt lat="45.75542" lon="5.42589">
        <ele>245.693</ele>
        <time>2016-06-18T13:31:56Z</time>
      </trkpt>
      <trkpt lat="45.75468" lon="5.42562">
        <ele>243.466</ele>
        <time>2016-06-18T13:32:09Z</time>
      </trkpt>
      <trkpt lat="45.75378" lon="5.42551">
        <ele>243.091</ele>
        <time>2016-06-18T13:32:22Z</time>
      </trkpt>
      <trkpt lat="45.7533" lon="5.42549">
        <ele>244.536</ele>
        <time>2016-06-18T13:32:34Z</time>
      </trkpt>
      <trkpt lat="45.75318" lon="5.42547">
        <ele>244.663</ele>
        <time>2016-06-18T13:32:37Z</time>
      </trkpt>
      <trkpt lat="45.75261" lon="5.42541">
        <ele>243.318</ele>
        <time>2016-06-18T13:32:47Z</time>
      </trkpt>
      <trkpt lat="45.75195" lon="5.42534">
        <ele>243.313</ele>
        <time>2016-06-18T13:33:00Z</time>
      </trkpt>
      <trkpt lat="45.75185" lon="5.42534">
        <ele>243.503</ele>
        <time>2016-06-18T13:33:02Z</time>
      </trkpt>
      <trkpt lat="45.75126" lon="5.42525">
        <ele>243.199</ele>
        <time>2016-06-18T13:33:14Z</time>
      </trkpt>
      <trkpt lat="45.75078" lon="5.42515">
        <ele>243.767</ele>
        <time>2016-06-18T13:33:25Z</time>
      </trkpt>
      <trkpt lat="45.75033" lon="5.42506">
        <ele>243.735</ele>
        <time>2016-06-18T13:33:34Z</time>
      </trkpt>
      <trkpt lat="45.74981" lon="5.42504">
        <ele>243.159</ele>
        <time>2016-06-18T13:33:46Z</time>
      </trkpt>
      <trkpt lat="45.74977" lon="5.42482">
        <ele>242.737</ele>
        <time>2016-06-18T13:34:06Z</time>
      </trkpt>
      <trkpt lat="45.7497" lon="5.42481">
        <ele>242.021</ele>
        <time>2016-06-18T13:35:59Z</time>
      </trkpt>
      <trkpt lat="45.74966" lon="5.42479">
        <ele>242.14</ele>
        <time>2016-06-18T13:36:02Z</time>
      </trkpt>
      <trkpt lat="45.74932" lon="5.42472">
        <ele>242.721</ele>
        <time>2016-06-18T13:36:14Z</time>
      </trkpt>
      <trkpt lat="45.749" lon="5.42466">
        <ele>242.406</ele>
        <time>2016-06-18T13:36:22Z</time>
      </trkpt>
      <trkpt lat="45.74826" lon="5.4245">
        <ele>241.582</ele>
        <time>2016-06-18T13:36:38Z</time>
      </trkpt>
      <trkpt lat="45.74777" lon="5.42439">
        <ele>242.073</ele>
        <time>2016-06-18T13:36:49Z</time>
      </trkpt>
      <trkpt lat="45.74727" lon="5.42428">
        <ele>242.472</ele>
        <time>2016-06-18T13:37:00Z</time>
      </trkpt>
      <trkpt lat="45.74665" lon="5.42412">
        <ele>242.459</ele>
        <time>2016-06-18T13:37:14Z</time>
      </trkpt>
      <trkpt lat="45.74647" lon="5.42409">
        <ele>242.422</ele>
        <time>2016-06-18T13:37:18Z</time>
      </trkpt>
      <trkpt lat="45.74595" lon="5.42398">
        <ele>242.544</ele>
        <time>2016-06-18T13:37:30Z</time>
      </trkpt>
      <trkpt lat="45.74536" lon="5.42384">
        <ele>242.885</ele>
        <time>2016-06-18T13:37:45Z</time>
      </trkpt>
      <trkpt lat="45.74497" lon="5.42375">
        <ele>242.861</ele>
        <time>2016-06-18T13:37:55Z</time>
      </trkpt>
      <trkpt lat="45.74461" lon="5.42346">
        <ele>242.89</ele>
        <time>2016-06-18T13:38:05Z</time>
      </trkpt>
      <trkpt lat="45.74445" lon="5.42336">
        <ele>243.062</ele>
        <time>2016-06-18T13:38:10Z</time>
      </trkpt>
      <trkpt lat="45.74394" lon="5.42352">
        <ele>243.212</ele>
        <time>2016-06-18T13:38:20Z</time>
      </trkpt>
      <trkpt lat="45.74363" lon="5.42345">
        <ele>243.122</ele>
        <time>2016-06-18T13:38:27Z</time>
      </trkpt>
      <trkpt lat="45.74293" lon="5.4233">
        <ele>243.582</ele>
        <time>2016-06-18T13:38:43Z</time>
      </trkpt>
      <trkpt lat="45.74245" lon="5.42319">
        <ele>243.387</ele>
        <time>2016-06-18T13:38:55Z</time>
      </trkpt>
      <trkpt lat="45.74188" lon="5.42308">
        <ele>243.952</ele>
        <time>2016-06-18T13:39:07Z</time>
      </trkpt>
      <trkpt lat="45.74095" lon="5.42287">
        <ele>243.725</ele>
        <time>2016-06-18T13:39:28Z</time>
      </trkpt>
      <trkpt lat="45.74021" lon="5.4227">
        <ele>244.317</ele>
        <time>2016-06-18T13:39:47Z</time>
      </trkpt>
      <trkpt lat="45.73941" lon="5.42252">
        <ele>244.103</ele>
        <time>2016-06-18T13:40:04Z</time>
      </trkpt>
      <trkpt lat="45.73846" lon="5.42232">
        <ele>243.506</ele>
        <time>2016-06-18T13:40:25Z</time>
      </trkpt>
      <trkpt lat="45.73795" lon="5.42222">
        <ele>243.36</ele>
        <time>2016-06-18T13:40:40Z</time>
      </trkpt>
      <trkpt lat="45.73749" lon="5.42211">
        <ele>242.903</ele>
        <time>2016-06-18T13:40:54Z</time>
      </trkpt>
      <trkpt lat="45.73703" lon="5.42201">
        <ele>242.945</ele>
        <time>2016-06-18T13:41:05Z</time>
      </trkpt>
      <trkpt lat="45.73698" lon="5.42201">
        <ele>242.945</ele>
        <time>2016-06-18T13:41:06Z</time>
      </trkpt>
      <trkpt lat="45.73634" lon="5.42193">
        <ele>242.414</ele>
        <time>2016-06-18T13:41:19Z</time>
      </trkpt>
      <trkpt lat="45.73619" lon="5.42193">
        <ele>242.361</ele>
        <time>2016-06-18T13:41:22Z</time>
      </trkpt>
      <trkpt lat="45.73568" lon="5.42201">
        <ele>243.159</ele>
        <time>2016-06-18T13:41:32Z</time>
      </trkpt>
      <trkpt lat="45.73516" lon="5.42216">
        <ele>243.688</ele>
        <time>2016-06-18T13:41:41Z</time>
      </trkpt>
      <trkpt lat="45.73495" lon="5.42226">
        <ele>243.426</ele>
        <time>2016-06-18T13:41:45Z</time>
      </trkpt>
      <trkpt lat="45.73473" lon="5.42238">
        <ele>243.725</ele>
        <time>2016-06-18T13:41:49Z</time>
      </trkpt>
      <trkpt lat="45.73412" lon="5.42279">
        <ele>242.449</ele>
        <time>2016-06-18T13:42:02Z</time>
      </trkpt>
      <trkpt lat="45.73396" lon="5.42292">
        <ele>242.301</ele>
        <time>2016-06-18T13:42:06Z</time>
      </trkpt>
      <trkpt lat="45.73383" lon="5.42305">
        <ele>242.105</ele>
        <time>2016-06-18T13:42:09Z</time>
      </trkpt>
      <trkpt lat="45.73342" lon="5.42349">
        <ele>242.428</ele>
        <time>2016-06-18T13:42:20Z</time>
      </trkpt>
      <trkpt lat="45.73285" lon="5.42422">
        <ele>241.984</ele>
        <time>2016-06-18T13:42:35Z</time>
      </trkpt>
      <trkpt lat="45.73233" lon="5.42488">
        <ele>242.684</ele>
        <time>2016-06-18T13:42:51Z</time>
      </trkpt>
      <trkpt lat="45.73222" lon="5.42499">
        <ele>242.808</ele>
        <time>2016-06-18T13:42:54Z</time>
      </trkpt>
      <trkpt lat="45.73176" lon="5.42545">
        <ele>242.657</ele>
        <time>2016-06-18T13:43:08Z</time>
      </trkpt>
      <trkpt lat="45.73154" lon="5.42561">
        <ele>243.059</ele>
        <time>2016-06-18T13:43:15Z</time>
      </trkpt>
      <trkpt lat="45.73135" lon="5.42575">
        <ele>242.597</ele>
        <time>2016-06-18T13:43:20Z</time>
      </trkpt>
      <trkpt lat="45.73119" lon="5.42584">
        <ele>242.335</ele>
        <time>2016-06-18T13:43:23Z</time>
      </trkpt>
      <trkpt lat="45.73103" lon="5.42592">
        <ele>242.705</ele>
        <time>2016-06-18T13:43:27Z</time>
      </trkpt>
      <trkpt lat="45.7308" lon="5.42604">
        <ele>242.398</ele>
        <time>2016-06-18T13:43:31Z</time>
      </trkpt>
      <trkpt lat="45.7305" lon="5.42616">
        <ele>242.737</ele>
        <time>2016-06-18T13:43:37Z</time>
      </trkpt>
      <trkpt lat="45.73005" lon="5.42628">
        <ele>242.821</ele>
        <time>2016-06-18T13:43:47Z</time>
      </trkpt>
      <trkpt lat="45.72958" lon="5.42635">
        <ele>242.805</ele>
        <time>2016-06-18T13:43:58Z</time>
      </trkpt>
      <trkpt lat="45.72949" lon="5.42635">
        <ele>243.056</ele>
        <time>2016-06-18T13:44:00Z</time>
      </trkpt>
      <trkpt lat="45.72886" lon="5.42627">
        <ele>243.006</ele>
        <time>2016-06-18T13:44:14Z</time>
      </trkpt>
      <trkpt lat="45.72807" lon="5.42598">
        <ele>242.935</ele>
        <time>2016-06-18T13:44:31Z</time>
      </trkpt>
      <trkpt lat="45.72766" lon="5.42578">
        <ele>242.803</ele>
        <time>2016-06-18T13:44:42Z</time>
      </trkpt>
      <trkpt lat="45.72709" lon="5.42545">
        <ele>242.523</ele>
        <time>2016-06-18T13:44:57Z</time>
      </trkpt>
      <trkpt lat="45.72686" lon="5.42534">
        <ele>242.544</ele>
        <time>2016-06-18T13:45:11Z</time>
      </trkpt>
      <trkpt lat="45.72684" lon="5.42533">
        <ele>241.944</ele>
        <time>2016-06-18T13:45:44Z</time>
      </trkpt>
      <trkpt lat="45.72681" lon="5.42568">
        <ele>242.874</ele>
        <time>2016-06-18T13:49:55Z</time>
      </trkpt>
      <trkpt lat="45.7268" lon="5.42575">
        <ele>243.358</ele>
        <time>2016-06-18T13:49:57Z</time>
      </trkpt>
      <trkpt lat="45.72673" lon="5.42623">
        <ele>246.89</ele>
        <time>2016-06-18T13:50:09Z</time>
      </trkpt>
      <trkpt lat="45.72673" lon="5.42627">
        <ele>246.89</ele>
        <time>2016-06-18T13:50:10Z</time>
      </trkpt>
      <trkpt lat="45.72656" lon="5.42669">
        <ele>249.924</ele>
        <time>2016-06-18T13:50:23Z</time>
      </trkpt>
      <trkpt lat="45.72639" lon="5.42703">
        <ele>250.254</ele>
        <time>2016-06-18T13:50:34Z</time>
      </trkpt>
      <trkpt lat="45.72649" lon="5.42719">
        <ele>250.51</ele>
        <time>2016-06-18T13:50:38Z</time>
      </trkpt>
      <trkpt lat="45.72713" lon="5.42772">
        <ele>252.151</ele>
        <time>2016-06-18T13:51:00Z</time>
      </trkpt>
      <trkpt lat="45.72743" lon="5.42817">
        <ele>252.151</ele>
        <time>2016-06-18T13:51:15Z</time>
      </trkpt>
      <trkpt lat="45.72758" lon="5.42872">
        <ele>251.998</ele>
        <time>2016-06-18T13:51:29Z</time>
      </trkpt>
      <trkpt lat="45.72777" lon="5.42927">
        <ele>252.556</ele>
        <time>2016-06-18T13:51:45Z</time>
      </trkpt>
      <trkpt lat="45.72804" lon="5.42992">
        <ele>253.668</ele>
        <time>2016-06-18T13:52:02Z</time>
      </trkpt>
      <trkpt lat="45.72844" lon="5.43056">
        <ele>252.455</ele>
        <time>2016-06-18T13:52:19Z</time>
      </trkpt>
      <trkpt lat="45.72863" lon="5.43094">
        <ele>251.744</ele>
        <time>2016-06-18T13:52:28Z</time>
      </trkpt>
      <trkpt lat="45.72889" lon="5.43176">
        <ele>252.711</ele>
        <time>2016-06-18T13:52:44Z</time>
      </trkpt>
      <trkpt lat="45.72914" lon="5.43256">
        <ele>253.969</ele>
        <time>2016-06-18T13:53:02Z</time>
      </trkpt>
      <trkpt lat="45.72932" lon="5.43317">
        <ele>255.433</ele>
        <time>2016-06-18T13:53:15Z</time>
      </trkpt>
      <trkpt lat="45.72939" lon="5.43335">
        <ele>257.417</ele>
        <time>2016-06-18T13:53:20Z</time>
      </trkpt>
      <trkpt lat="45.72948" lon="5.43389">
        <ele>258.776</ele>
        <time>2016-06-18T13:53:35Z</time>
      </trkpt>
      <trkpt lat="45.72954" lon="5.43454">
        <ele>256.231</ele>
        <time>2016-06-18T13:53:49Z</time>
      </trkpt>
      <trkpt lat="45.72944" lon="5.43464">
        <ele>256.308</ele>
        <time>2016-06-18T13:53:54Z</time>
      </trkpt>
      <trkpt lat="45.72863" lon="5.43452">
        <ele>256.115</ele>
        <time>2016-06-18T13:54:16Z</time>
      </trkpt>
      <trkpt lat="45.7283" lon="5.43447">
        <ele>257.04</ele>
        <time>2016-06-18T13:55:44Z</time>
      </trkpt>
      <trkpt lat="45.72828" lon="5.43473">
        <ele>256.575</ele>
        <time>2016-06-18T13:55:52Z</time>
      </trkpt>
      <trkpt lat="45.72814" lon="5.43532">
        <ele>255.502</ele>
        <time>2016-06-18T13:56:07Z</time>
      </trkpt>
      <trkpt lat="45.72812" lon="5.43542">
        <ele>255.584</ele>
        <time>2016-06-18T13:56:09Z</time>
      </trkpt>
      <trkpt lat="45.72806" lon="5.43568">
        <ele>254.857</ele>
        <time>2016-06-18T13:56:16Z</time>
      </trkpt>
      <trkpt lat="45.72794" lon="5.43622">
        <ele>255.156</ele>
        <time>2016-06-18T13:56:40Z</time>
      </trkpt>
      <trkpt lat="45.7278" lon="5.43681">
        <ele>255.288</ele>
        <time>2016-06-18T13:56:51Z</time>
      </trkpt>
      <trkpt lat="45.72764" lon="5.43744">
        <ele>254.78</ele>
        <time>2016-06-18T13:57:08Z</time>
      </trkpt>
      <trkpt lat="45.72759" lon="5.43765">
        <ele>254.228</ele>
        <time>2016-06-18T13:57:14Z</time>
      </trkpt>
      <trkpt lat="45.72751" lon="5.43803">
        <ele>253.306</ele>
        <time>2016-06-18T13:57:28Z</time>
      </trkpt>
      <trkpt lat="45.7275" lon="5.43814">
        <ele>252.593</ele>
        <time>2016-06-18T13:57:31Z</time>
      </trkpt>
      <trkpt lat="45.7275" lon="5.43826">
        <ele>252.31</ele>
        <time>2016-06-18T13:57:35Z</time>
      </trkpt>
      <trkpt lat="45.7275" lon="5.43855">
        <ele>250.97</ele>
        <time>2016-06-18T13:57:41Z</time>
      </trkpt>
      <trkpt lat="45.7275" lon="5.43868">
        <ele>250.249</ele>
        <time>2016-06-18T13:57:45Z</time>
      </trkpt>
      <trkpt lat="45.72752" lon="5.43901">
        <ele>251.298</ele>
        <time>2016-06-18T13:57:58Z</time>
      </trkpt>
      <trkpt lat="45.72755" lon="5.43947">
        <ele>251.853</ele>
        <time>2016-06-18T13:58:13Z</time>
      </trkpt>
      <trkpt lat="45.72757" lon="5.43972">
        <ele>250.146</ele>
        <time>2016-06-18T13:58:23Z</time>
      </trkpt>
      <trkpt lat="45.72757" lon="5.43974">
        <ele>250.032</ele>
        <time>2016-06-18T13:58:42Z</time>
      </trkpt>
      <trkpt lat="45.72757" lon="5.43987">
        <ele>249.44</ele>
        <time>2016-06-18T14:02:06Z</time>
      </trkpt>
      <trkpt lat="45.7276" lon="5.44035">
        <ele>248.55</ele>
        <time>2016-06-18T14:02:16Z</time>
      </trkpt>
      <trkpt lat="45.72771" lon="5.44094">
        <ele>245.799</ele>
        <time>2016-06-18T14:02:26Z</time>
      </trkpt>
      <trkpt lat="45.72774" lon="5.44102">
        <ele>244.964</ele>
        <time>2016-06-18T14:02:34Z</time>
      </trkpt>
      <trkpt lat="45.72784" lon="5.44122">
        <ele>243.659</ele>
        <time>2016-06-18T14:02:38Z</time>
      </trkpt>
      <trkpt lat="45.72794" lon="5.44133">
        <ele>243.212</ele>
        <time>2016-06-18T14:02:46Z</time>
      </trkpt>
      <trkpt lat="45.72799" lon="5.44138">
        <ele>241.83</ele>
        <time>2016-06-18T14:02:59Z</time>
      </trkpt>
      <trkpt lat="45.72823" lon="5.44169">
        <ele>241.989</ele>
        <time>2016-06-18T14:03:07Z</time>
      </trkpt>
      <trkpt lat="45.72831" lon="5.44186">
        <ele>242.092</ele>
        <time>2016-06-18T14:03:17Z</time>
      </trkpt>
      <trkpt lat="45.72834" lon="5.44192">
        <ele>241.791</ele>
        <time>2016-06-18T14:03:20Z</time>
      </trkpt>
      <trkpt lat="45.7285" lon="5.44223">
        <ele>242.105</ele>
        <time>2016-06-18T14:03:36Z</time>
      </trkpt>
      <trkpt lat="45.7287" lon="5.44249">
        <ele>243.765</ele>
        <time>2016-06-18T14:03:47Z</time>
      </trkpt>
      <trkpt lat="45.7288" lon="5.4426">
        <ele>245.633</ele>
        <time>2016-06-18T14:03:52Z</time>
      </trkpt>
      <trkpt lat="45.72888" lon="5.44269">
        <ele>246.647</ele>
        <time>2016-06-18T14:03:56Z</time>
      </trkpt>
      <trkpt lat="45.72915" lon="5.44294">
        <ele>247.097</ele>
        <time>2016-06-18T14:04:06Z</time>
      </trkpt>
      <trkpt lat="45.72926" lon="5.44302">
        <ele>247.268</ele>
        <time>2016-06-18T14:04:11Z</time>
      </trkpt>
      <trkpt lat="45.72963" lon="5.44349">
        <ele>250.069</ele>
        <time>2016-06-18T14:04:27Z</time>
      </trkpt>
      <trkpt lat="45.72967" lon="5.44357">
        <ele>249.963</ele>
        <time>2016-06-18T14:06:17Z</time>
      </trkpt>
      <trkpt lat="45.72973" lon="5.44375">
        <ele>250.214</ele>
        <time>2016-06-18T14:06:22Z</time>
      </trkpt>
      <trkpt lat="45.7295" lon="5.4444">
        <ele>253.583</ele>
        <time>2016-06-18T14:06:37Z</time>
      </trkpt>
      <trkpt lat="45.72941" lon="5.44452">
        <ele>254.154</ele>
        <time>2016-06-18T14:06:43Z</time>
      </trkpt>
      <trkpt lat="45.72937" lon="5.44458">
        <ele>254.64</ele>
        <time>2016-06-18T14:06:47Z</time>
      </trkpt>
      <trkpt lat="45.72914" lon="5.44482">
        <ele>254.373</ele>
        <time>2016-06-18T14:07:00Z</time>
      </trkpt>
      <trkpt lat="45.72891" lon="5.44512">
        <ele>254.994</ele>
        <time>2016-06-18T14:07:12Z</time>
      </trkpt>
      <trkpt lat="45.72873" lon="5.4456">
        <ele>253.935</ele>
        <time>2016-06-18T14:07:24Z</time>
      </trkpt>
      <trkpt lat="45.72871" lon="5.44564">
        <ele>253.935</ele>
        <time>2016-06-18T14:07:25Z</time>
      </trkpt>
      <trkpt lat="45.72852" lon="5.44621">
        <ele>250.077</ele>
        <time>2016-06-18T14:07:35Z</time>
      </trkpt>
      <trkpt lat="45.72851" lon="5.44629">
        <ele>250.077</ele>
        <time>2016-06-18T14:07:36Z</time>
      </trkpt>
      <trkpt lat="45.72849" lon="5.44637">
        <ele>249.924</ele>
        <time>2016-06-18T14:07:37Z</time>
      </trkpt>
      <trkpt lat="45.72849" lon="5.44686">
        <ele>248.183</ele>
        <time>2016-06-18T14:07:42Z</time>
      </trkpt>
      <trkpt lat="45.72851" lon="5.44748">
        <ele>247.086</ele>
        <time>2016-06-18T14:07:53Z</time>
      </trkpt>
      <trkpt lat="45.72859" lon="5.44791">
        <ele>246.766</ele>
        <time>2016-06-18T14:08:03Z</time>
      </trkpt>
      <trkpt lat="45.72861" lon="5.44808">
        <ele>246.713</ele>
        <time>2016-06-18T14:08:06Z</time>
      </trkpt>
      <trkpt lat="45.72863" lon="5.44843">
        <ele>247.509</ele>
        <time>2016-06-18T14:08:12Z</time>
      </trkpt>
      <trkpt lat="45.72859" lon="5.44869">
        <ele>247.244</ele>
        <time>2016-06-18T14:08:16Z</time>
      </trkpt>
      <trkpt lat="45.72849" lon="5.44911">
        <ele>245.318</ele>
        <time>2016-06-18T14:08:22Z</time>
      </trkpt>
      <trkpt lat="45.72845" lon="5.44936">
        <ele>244.148</ele>
        <time>2016-06-18T14:08:30Z</time>
      </trkpt>
      <trkpt lat="45.72853" lon="5.44936">
        <ele>243.395</ele>
        <time>2016-06-18T14:10:53Z</time>
      </trkpt>
      <trkpt lat="45.72892" lon="5.44931">
        <ele>243.796</ele>
        <time>2016-06-18T14:11:08Z</time>
      </trkpt>
      <trkpt lat="45.72931" lon="5.44942">
        <ele>245.059</ele>
        <time>2016-06-18T14:11:22Z</time>
      </trkpt>
      <trkpt lat="45.72957" lon="5.4496">
        <ele>246.1</ele>
        <time>2016-06-18T14:11:34Z</time>
      </trkpt>
      <trkpt lat="45.73006" lon="5.44972">
        <ele>245.773</ele>
        <time>2016-06-18T14:11:50Z</time>
      </trkpt>
      <trkpt lat="45.73039" lon="5.44985">
        <ele>246.637</ele>
        <time>2016-06-18T14:12:04Z</time>
      </trkpt>
      <trkpt lat="45.73062" lon="5.44994">
        <ele>246.671</ele>
        <time>2016-06-18T14:12:15Z</time>
      </trkpt>
      <trkpt lat="45.73105" lon="5.44992">
        <ele>248.106</ele>
        <time>2016-06-18T14:12:30Z</time>
      </trkpt>
      <trkpt lat="45.73139" lon="5.44963">
        <ele>249.694</ele>
        <time>2016-06-18T14:12:42Z</time>
      </trkpt>
      <trkpt lat="45.73191" lon="5.44931">
        <ele>247.091</ele>
        <time>2016-06-18T14:12:58Z</time>
      </trkpt>
      <trkpt lat="45.73232" lon="5.44944">
        <ele>245.915</ele>
        <time>2016-06-18T14:13:09Z</time>
      </trkpt>
      <trkpt lat="45.73275" lon="5.44981">
        <ele>244.425</ele>
        <time>2016-06-18T14:13:22Z</time>
      </trkpt>
      <trkpt lat="45.73315" lon="5.4502">
        <ele>243.833</ele>
        <time>2016-06-18T14:13:36Z</time>
      </trkpt>
      <trkpt lat="45.73327" lon="5.45029">
        <ele>243.611</ele>
        <time>2016-06-18T14:13:39Z</time>
      </trkpt>
      <trkpt lat="45.73381" lon="5.45037">
        <ele>243.244</ele>
        <time>2016-06-18T14:13:54Z</time>
      </trkpt>
      <trkpt lat="45.73417" lon="5.45018">
        <ele>243.284</ele>
        <time>2016-06-18T14:14:10Z</time>
      </trkpt>
      <trkpt lat="45.73454" lon="5.45025">
        <ele>243.926</ele>
        <time>2016-06-18T14:14:24Z</time>
      </trkpt>
      <trkpt lat="45.7352" lon="5.45037">
        <ele>242.398</ele>
        <time>2016-06-18T14:14:46Z</time>
      </trkpt>
      <trkpt lat="45.73561" lon="5.45083">
        <ele>242.034</ele>
        <time>2016-06-18T14:15:02Z</time>
      </trkpt>
      <trkpt lat="45.73593" lon="5.4513">
        <ele>242.605</ele>
        <time>2016-06-18T14:15:18Z</time>
      </trkpt>
      <trkpt lat="45.73639" lon="5.45171">
        <ele>241.392</ele>
        <time>2016-06-18T14:15:34Z</time>
      </trkpt>
      <trkpt lat="45.73647" lon="5.45176">
        <ele>241.215</ele>
        <time>2016-06-18T14:15:37Z</time>
      </trkpt>
      <trkpt lat="45.73699" lon="5.45187">
        <ele>241.434</ele>
        <time>2016-06-18T14:15:51Z</time>
      </trkpt>
      <trkpt lat="45.73732" lon="5.45187">
        <ele>242.972</ele>
        <time>2016-06-18T14:16:04Z</time>
      </trkpt>
      <trkpt lat="45.73746" lon="5.45186">
        <ele>244.827</ele>
        <time>2016-06-18T14:16:18Z</time>
      </trkpt>
      <trkpt lat="45.73774" lon="5.45182">
        <ele>245.403</ele>
        <time>2016-06-18T14:16:33Z</time>
      </trkpt>
      <trkpt lat="45.73788" lon="5.45064">
        <ele>244.98</ele>
        <time>2016-06-18T14:16:44Z</time>
      </trkpt>
      <trkpt lat="45.738" lon="5.45059">
        <ele>245.651</ele>
        <time>2016-06-18T14:16:49Z</time>
      </trkpt>
      <trkpt lat="45.73836" lon="5.45045">
        <ele>245.242</ele>
        <time>2016-06-18T14:17:02Z</time>
      </trkpt>
      <trkpt lat="45.73866" lon="5.45008">
        <ele>244.465</ele>
        <time>2016-06-18T14:17:16Z</time>
      </trkpt>
      <trkpt lat="45.73888" lon="5.44943">
        <ele>243.08</ele>
        <time>2016-06-18T14:17:32Z</time>
      </trkpt>
      <trkpt lat="45.7389" lon="5.44938">
        <ele>242.544</ele>
        <time>2016-06-18T14:17:33Z</time>
      </trkpt>
      <trkpt lat="45.73906" lon="5.4493">
        <ele>242.951</ele>
        <time>2016-06-18T14:17:38Z</time>
      </trkpt>
      <trkpt lat="45.73958" lon="5.44918">
        <ele>242.607</ele>
        <time>2016-06-18T14:17:53Z</time>
      </trkpt>
      <trkpt lat="45.73962" lon="5.44914">
        <ele>242.607</ele>
        <time>2016-06-18T14:17:54Z</time>
      </trkpt>
      <trkpt lat="45.73983" lon="5.44909">
        <ele>242.224</ele>
        <time>2016-06-18T14:17:59Z</time>
      </trkpt>
      <trkpt lat="45.74046" lon="5.44934">
        <ele>242.483</ele>
        <time>2016-06-18T14:18:17Z</time>
      </trkpt>
      <trkpt lat="45.74078" lon="5.44938">
        <ele>241.836</ele>
        <time>2016-06-18T14:18:25Z</time>
      </trkpt>
      <trkpt lat="45.74104" lon="5.4494">
        <ele>241.944</ele>
        <time>2016-06-18T14:18:31Z</time>
      </trkpt>
      <trkpt lat="45.74128" lon="5.44928">
        <ele>242.361</ele>
        <time>2016-06-18T14:18:38Z</time>
      </trkpt>
      <trkpt lat="45.74162" lon="5.44905">
        <ele>241.505</ele>
        <time>2016-06-18T14:18:49Z</time>
      </trkpt>
      <trkpt lat="45.74197" lon="5.44928">
        <ele>241.46</ele>
        <time>2016-06-18T14:19:02Z</time>
      </trkpt>
      <trkpt lat="45.74198" lon="5.44933">
        <ele>241.32</ele>
        <time>2016-06-18T14:19:03Z</time>
      </trkpt>
      <trkpt lat="45.74208" lon="5.45058">
        <ele>240.575</ele>
        <time>2016-06-18T14:19:25Z</time>
      </trkpt>
      <trkpt lat="45.74232" lon="5.45059">
        <ele>240.536</ele>
        <time>2016-06-18T14:19:33Z</time>
      </trkpt>
      <trkpt lat="45.74257" lon="5.45048">
        <ele>240.599</ele>
        <time>2016-06-18T14:19:48Z</time>
      </trkpt>
      <trkpt lat="45.74281" lon="5.45036">
        <ele>241.5</ele>
        <time>2016-06-18T14:20:44Z</time>
      </trkpt>
      <trkpt lat="45.74333" lon="5.45012">
        <ele>241.682</ele>
        <time>2016-06-18T14:21:01Z</time>
      </trkpt>
      <trkpt lat="45.74358" lon="5.45016">
        <ele>240.932</ele>
        <time>2016-06-18T14:21:12Z</time>
      </trkpt>
      <trkpt lat="45.74388" lon="5.45023">
        <ele>240.092</ele>
        <time>2016-06-18T14:21:26Z</time>
      </trkpt>
      <trkpt lat="45.74426" lon="5.4503">
        <ele>239.492</ele>
        <time>2016-06-18T14:21:42Z</time>
      </trkpt>
      <trkpt lat="45.7447" lon="5.45038">
        <ele>238.601</ele>
        <time>2016-06-18T14:21:55Z</time>
      </trkpt>
      <trkpt lat="45.74491" lon="5.45048">
        <ele>239.082</ele>
        <time>2016-06-18T14:22:01Z</time>
      </trkpt>
      <trkpt lat="45.74531" lon="5.4505">
        <ele>238.575</ele>
        <time>2016-06-18T14:22:11Z</time>
      </trkpt>
      <trkpt lat="45.74567" lon="5.45049">
        <ele>239.349</ele>
        <time>2016-06-18T14:22:22Z</time>
      </trkpt>
      <trkpt lat="45.74627" lon="5.45066">
        <ele>239.724</ele>
        <time>2016-06-18T14:22:39Z</time>
      </trkpt>
      <trkpt lat="45.74677" lon="5.4508">
        <ele>239.68</ele>
        <time>2016-06-18T14:22:53Z</time>
      </trkpt>
      <trkpt lat="45.74724" lon="5.45077">
        <ele>240.089</ele>
        <time>2016-06-18T14:23:05Z</time>
      </trkpt>
      <trkpt lat="45.74736" lon="5.4508">
        <ele>239.793</ele>
        <time>2016-06-18T14:23:08Z</time>
      </trkpt>
      <trkpt lat="45.74751" lon="5.45083">
        <ele>239.867</ele>
        <time>2016-06-18T14:23:11Z</time>
      </trkpt>
      <trkpt lat="45.74798" lon="5.45103">
        <ele>239.732</ele>
        <time>2016-06-18T14:23:23Z</time>
      </trkpt>
      <trkpt lat="45.74844" lon="5.45138">
        <ele>239.96</ele>
        <time>2016-06-18T14:23:36Z</time>
      </trkpt>
      <trkpt lat="45.74902" lon="5.45203">
        <ele>239.709</ele>
        <time>2016-06-18T14:23:55Z</time>
      </trkpt>
      <trkpt lat="45.74958" lon="5.45241">
        <ele>240.16</ele>
        <time>2016-06-18T14:24:12Z</time>
      </trkpt>
      <trkpt lat="45.75006" lon="5.45261">
        <ele>239.685</ele>
        <time>2016-06-18T14:24:26Z</time>
      </trkpt>
      <trkpt lat="45.7505" lon="5.45278">
        <ele>238.905</ele>
        <time>2016-06-18T14:24:38Z</time>
      </trkpt>
      <trkpt lat="45.75103" lon="5.45305">
        <ele>238.956</ele>
        <time>2016-06-18T14:24:53Z</time>
      </trkpt>
      <trkpt lat="45.75145" lon="5.45322">
        <ele>238.908</ele>
        <time>2016-06-18T14:25:05Z</time>
      </trkpt>
      <trkpt lat="45.75216" lon="5.45343">
        <ele>238.559</ele>
        <time>2016-06-18T14:25:22Z</time>
      </trkpt>
      <trkpt lat="45.75228" lon="5.45344">
        <ele>238.715</ele>
        <time>2016-06-18T14:25:25Z</time>
      </trkpt>
      <trkpt lat="45.75256" lon="5.45348">
        <ele>238.438</ele>
        <time>2016-06-18T14:25:32Z</time>
      </trkpt>
      <trkpt lat="45.75294" lon="5.45352">
        <ele>237.346</ele>
        <time>2016-06-18T14:25:42Z</time>
      </trkpt>
      <trkpt lat="45.75338" lon="5.45357">
        <ele>238.229</ele>
        <time>2016-06-18T14:25:54Z</time>
      </trkpt>
      <trkpt lat="45.75374" lon="5.45361">
        <ele>238.195</ele>
        <time>2016-06-18T14:26:05Z</time>
      </trkpt>
      <trkpt lat="45.754" lon="5.45363">
        <ele>238.062</ele>
        <time>2016-06-18T14:26:11Z</time>
      </trkpt>
      <trkpt lat="45.75434" lon="5.45367">
        <ele>237.875</ele>
        <time>2016-06-18T14:26:19Z</time>
      </trkpt>
      <trkpt lat="45.75469" lon="5.45372">
        <ele>237.161</ele>
        <time>2016-06-18T14:26:28Z</time>
      </trkpt>
      <trkpt lat="45.75487" lon="5.45376">
        <ele>237.27</ele>
        <time>2016-06-18T14:26:32Z</time>
      </trkpt>
      <trkpt lat="45.75509" lon="5.45381">
        <ele>237.582</ele>
        <time>2016-06-18T14:26:37Z</time>
      </trkpt>
      <trkpt lat="45.75534" lon="5.45412">
        <ele>236.908</ele>
        <time>2016-06-18T14:26:41Z</time>
      </trkpt>
      <trkpt lat="45.75556" lon="5.45403">
        <ele>236.794</ele>
        <time>2016-06-18T14:26:46Z</time>
      </trkpt>
      <trkpt lat="45.75633" lon="5.45386">
        <ele>236.913</ele>
        <time>2016-06-18T14:27:03Z</time>
      </trkpt>
      <trkpt lat="45.7571" lon="5.45365">
        <ele>236.831</ele>
        <time>2016-06-18T14:27:22Z</time>
      </trkpt>
      <trkpt lat="45.75805" lon="5.45341">
        <ele>239.244</ele>
        <time>2016-06-18T14:27:47Z</time>
      </trkpt>
      <trkpt lat="45.75863" lon="5.45355">
        <ele>239.468</ele>
        <time>2016-06-18T14:28:03Z</time>
      </trkpt>
      <trkpt lat="45.75917" lon="5.45352">
        <ele>239.428</ele>
        <time>2016-06-18T14:28:18Z</time>
      </trkpt>
      <trkpt lat="45.7593" lon="5.45351">
        <ele>239.428</ele>
        <time>2016-06-18T14:28:28Z</time>
      </trkpt>
      <trkpt lat="45.75941" lon="5.45353">
        <ele>240.005</ele>
        <time>2016-06-18T14:30:52Z</time>
      </trkpt>
      <trkpt lat="45.75991" lon="5.45348">
        <ele>240.731</ele>
        <time>2016-06-18T14:31:08Z</time>
      </trkpt>
      <trkpt lat="45.76068" lon="5.45337">
        <ele>240.116</ele>
        <time>2016-06-18T14:31:26Z</time>
      </trkpt>
      <trkpt lat="45.76121" lon="5.45331">
        <ele>240.039</ele>
        <time>2016-06-18T14:31:37Z</time>
      </trkpt>
      <trkpt lat="45.76168" lon="5.45326">
        <ele>240.478</ele>
        <time>2016-06-18T14:31:47Z</time>
      </trkpt>
      <trkpt lat="45.76226" lon="5.45318">
        <ele>238.369</ele>
        <time>2016-06-18T14:32:02Z</time>
      </trkpt>
      <trkpt lat="45.76323" lon="5.45307">
        <ele>236.374</ele>
        <time>2016-06-18T14:32:26Z</time>
      </trkpt>
      <trkpt lat="45.76333" lon="5.45306">
        <ele>236.546</ele>
        <time>2016-06-18T14:32:28Z</time>
      </trkpt>
      <trkpt lat="45.76346" lon="5.45305">
        <ele>236.385</ele>
        <time>2016-06-18T14:32:31Z</time>
      </trkpt>
      <trkpt lat="45.76435" lon="5.45294">
        <ele>236.348</ele>
        <time>2016-06-18T14:32:51Z</time>
      </trkpt>
      <trkpt lat="45.76471" lon="5.45289">
        <ele>236.007</ele>
        <time>2016-06-18T14:33:00Z</time>
      </trkpt>
      <trkpt lat="45.76488" lon="5.45287">
        <ele>235.737</ele>
        <time>2016-06-18T14:33:04Z</time>
      </trkpt>
      <trkpt lat="45.76528" lon="5.45289">
        <ele>234.091</ele>
        <time>2016-06-18T14:33:19Z</time>
      </trkpt>
      <trkpt lat="45.76543" lon="5.45281">
        <ele>235.613</ele>
        <time>2016-06-18T14:33:42Z</time>
      </trkpt>
      <trkpt lat="45.76637" lon="5.452">
        <ele>235.391</ele>
        <time>2016-06-18T14:34:07Z</time>
      </trkpt>
      <trkpt lat="45.76721" lon="5.45126">
        <ele>235.198</ele>
        <time>2016-06-18T14:34:31Z</time>
      </trkpt>
      <trkpt lat="45.76789" lon="5.45079">
        <ele>234.553</ele>
        <time>2016-06-18T14:34:49Z</time>
      </trkpt>
      <trkpt lat="45.76855" lon="5.45035">
        <ele>233.745</ele>
        <time>2016-06-18T14:35:07Z</time>
      </trkpt>
      <trkpt lat="45.76902" lon="5.44998">
        <ele>233.753</ele>
        <time>2016-06-18T14:35:21Z</time>
      </trkpt>
      <trkpt lat="45.76922" lon="5.44979">
        <ele>233.713</ele>
        <time>2016-06-18T14:35:27Z</time>
      </trkpt>
      <trkpt lat="45.76946" lon="5.44954">
        <ele>233.631</ele>
        <time>2016-06-18T14:35:34Z</time>
      </trkpt>
      <trkpt lat="45.76959" lon="5.44937">
        <ele>233.267</ele>
        <time>2016-06-18T14:35:38Z</time>
      </trkpt>
      <trkpt lat="45.76984" lon="5.44903">
        <ele>233.829</ele>
        <time>2016-06-18T14:35:46Z</time>
      </trkpt>
      <trkpt lat="45.77035" lon="5.44814">
        <ele>233.75</ele>
        <time>2016-06-18T14:36:05Z</time>
      </trkpt>
      <trkpt lat="45.7707" lon="5.44708">
        <ele>234.458</ele>
        <time>2016-06-18T14:36:25Z</time>
      </trkpt>
      <trkpt lat="45.77119" lon="5.4458">
        <ele>233.568</ele>
        <time>2016-06-18T14:36:49Z</time>
      </trkpt>
      <trkpt lat="45.77135" lon="5.44549">
        <ele>233.013</ele>
        <time>2016-06-18T14:36:55Z</time>
      </trkpt>
      <trkpt lat="45.77153" lon="5.44526">
        <ele>233.275</ele>
        <time>2016-06-18T14:37:00Z</time>
      </trkpt>
      <trkpt lat="45.77163" lon="5.44513">
        <ele>233.28</ele>
        <time>2016-06-18T14:37:03Z</time>
      </trkpt>
      <trkpt lat="45.77173" lon="5.44501">
        <ele>233.359</ele>
        <time>2016-06-18T14:37:06Z</time>
      </trkpt>
      <trkpt lat="45.77182" lon="5.44489">
        <ele>233.166</ele>
        <time>2016-06-18T14:37:09Z</time>
      </trkpt>
      <trkpt lat="45.77234" lon="5.44431">
        <ele>232.857</ele>
        <time>2016-06-18T14:37:23Z</time>
      </trkpt>
      <trkpt lat="45.77246" lon="5.4442">
        <ele>233.161</ele>
        <time>2016-06-18T14:37:26Z</time>
      </trkpt>
      <trkpt lat="45.77272" lon="5.44395">
        <ele>232.831</ele>
        <time>2016-06-18T14:37:33Z</time>
      </trkpt>
      <trkpt lat="45.77332" lon="5.44316">
        <ele>233.866</ele>
        <time>2016-06-18T14:37:52Z</time>
      </trkpt>
      <trkpt lat="45.77379" lon="5.44255">
        <ele>232.36</ele>
        <time>2016-06-18T14:38:05Z</time>
      </trkpt>
      <trkpt lat="45.77388" lon="5.44231">
        <ele>230.904</ele>
        <time>2016-06-18T14:38:08Z</time>
      </trkpt>
      <trkpt lat="45.77391" lon="5.44215">
        <ele>230.788</ele>
        <time>2016-06-18T14:38:10Z</time>
      </trkpt>
      <trkpt lat="45.77391" lon="5.44198">
        <ele>228.421</ele>
        <time>2016-06-18T14:38:15Z</time>
      </trkpt>
      <trkpt lat="45.77391" lon="5.44187">
        <ele>228.119</ele>
        <time>2016-06-18T14:39:59Z</time>
      </trkpt>
      <trkpt lat="45.7742" lon="5.44274">
        <ele>225.865</ele>
        <time>2016-06-18T14:40:15Z</time>
      </trkpt>
      <trkpt lat="45.77429" lon="5.443">
        <ele>226.008</ele>
        <time>2016-06-18T14:40:18Z</time>
      </trkpt>
      <trkpt lat="45.77442" lon="5.44331">
        <ele>226.011</ele>
        <time>2016-06-18T14:40:23Z</time>
      </trkpt>
      <trkpt lat="45.77456" lon="5.44345">
        <ele>225.67</ele>
        <time>2016-06-18T14:40:26Z</time>
      </trkpt>
      <trkpt lat="45.77477" lon="5.44365">
        <ele>225.781</ele>
        <time>2016-06-18T14:40:42Z</time>
      </trkpt>
      <trkpt lat="45.77484" lon="5.44375">
        <ele>225.91</ele>
        <time>2016-06-18T14:40:46Z</time>
      </trkpt>
      <trkpt lat="45.77497" lon="5.44506">
        <ele>226.048</ele>
        <time>2016-06-18T14:41:01Z</time>
      </trkpt>
      <trkpt lat="45.77524" lon="5.44648">
        <ele>225.319</ele>
        <time>2016-06-18T14:41:19Z</time>
      </trkpt>
      <trkpt lat="45.77527" lon="5.44705">
        <ele>224.32</ele>
        <time>2016-06-18T14:41:26Z</time>
      </trkpt>
      <trkpt lat="45.77524" lon="5.44724">
        <ele>224.375</ele>
        <time>2016-06-18T14:41:29Z</time>
      </trkpt>
      <trkpt lat="45.77535" lon="5.44802">
        <ele>224.616</ele>
        <time>2016-06-18T14:41:39Z</time>
      </trkpt>
      <trkpt lat="45.77533" lon="5.44828">
        <ele>224.359</ele>
        <time>2016-06-18T14:41:43Z</time>
      </trkpt>
      <trkpt lat="45.77531" lon="5.44849">
        <ele>224.61</ele>
        <time>2016-06-18T14:41:46Z</time>
      </trkpt>
      <trkpt lat="45.77531" lon="5.44913">
        <ele>224.46</ele>
        <time>2016-06-18T14:41:58Z</time>
      </trkpt>
      <trkpt lat="45.77526" lon="5.44962">
        <ele>224.724</ele>
        <time>2016-06-18T14:42:09Z</time>
      </trkpt>
      <trkpt lat="45.77514" lon="5.45038">
        <ele>224.893</ele>
        <time>2016-06-18T14:42:26Z</time>
      </trkpt>
      <trkpt lat="45.775" lon="5.45099">
        <ele>225.34</ele>
        <time>2016-06-18T14:42:42Z</time>
      </trkpt>
      <trkpt lat="45.77498" lon="5.45104">
        <ele>225.57</ele>
        <time>2016-06-18T14:42:44Z</time>
      </trkpt>
      <trkpt lat="45.77496" lon="5.45107">
        <ele>225.226</ele>
        <time>2016-06-18T14:43:02Z</time>
      </trkpt>
      <trkpt lat="45.7751" lon="5.4513">
        <ele>225.48</ele>
        <time>2016-06-18T14:43:11Z</time>
      </trkpt>
      <trkpt lat="45.7752" lon="5.45129">
        <ele>224.875</ele>
        <time>2016-06-18T14:43:13Z</time>
      </trkpt>
      <trkpt lat="45.77534" lon="5.45127">
        <ele>223.186</ele>
        <time>2016-06-18T14:43:16Z</time>
      </trkpt>
      <trkpt lat="45.77562" lon="5.45123">
        <ele>223.004</ele>
        <time>2016-06-18T14:43:26Z</time>
      </trkpt>
      <trkpt lat="45.77588" lon="5.45121">
        <ele>223.028</ele>
        <time>2016-06-18T14:43:39Z</time>
      </trkpt>
      <trkpt lat="45.77593" lon="5.4512">
        <ele>222.859</ele>
        <time>2016-06-18T14:43:42Z</time>
      </trkpt>
      <trkpt lat="45.77612" lon="5.45118">
        <ele>222.896</ele>
        <time>2016-06-18T14:43:49Z</time>
      </trkpt>
      <trkpt lat="45.7762" lon="5.45115">
        <ele>224.074</ele>
        <time>2016-06-18T14:49:54Z</time>
      </trkpt>
      <trkpt lat="45.77621" lon="5.45117">
        <ele>223.876</ele>
        <time>2016-06-18T14:49:57Z</time>
      </trkpt>
      <trkpt lat="45.77625" lon="5.45114">
        <ele>224.489</ele>
        <time>2016-06-18T14:50:01Z</time>
      </trkpt>
      <trkpt lat="45.77669" lon="5.45111">
        <ele>225.424</ele>
        <time>2016-06-18T14:50:16Z</time>
      </trkpt>
      <trkpt lat="45.77729" lon="5.45094">
        <ele>227.152</ele>
        <time>2016-06-18T14:50:33Z</time>
      </trkpt>
      <trkpt lat="45.77738" lon="5.45123">
        <ele>227.831</ele>
        <time>2016-06-18T14:50:41Z</time>
      </trkpt>
      <trkpt lat="45.77695" lon="5.45187">
        <ele>226.751</ele>
        <time>2016-06-18T14:50:57Z</time>
      </trkpt>
      <trkpt lat="45.77663" lon="5.45234">
        <ele>224.801</ele>
        <time>2016-06-18T14:51:05Z</time>
      </trkpt>
      <trkpt lat="45.77655" lon="5.4525">
        <ele>223.419</ele>
        <time>2016-06-18T14:51:08Z</time>
      </trkpt>
      <trkpt lat="45.77655" lon="5.45257">
        <ele>222.679</ele>
        <time>2016-06-18T14:51:11Z</time>
      </trkpt>
      <trkpt lat="45.77666" lon="5.45298">
        <ele>222.201</ele>
        <time>2016-06-18T14:51:25Z</time>
      </trkpt>
      <trkpt lat="45.77666" lon="5.45301">
        <ele>221.485</ele>
        <time>2016-06-18T14:51:37Z</time>
      </trkpt>
      <trkpt lat="45.77667" lon="5.45307">
        <ele>222.457</ele>
        <time>2016-06-18T14:55:04Z</time>
      </trkpt>
      <trkpt lat="45.77669" lon="5.45314">
        <ele>222.203</ele>
        <time>2016-06-18T14:55:10Z</time>
      </trkpt>
      <trkpt lat="45.77677" lon="5.45328">
        <ele>221.5</ele>
        <time>2016-06-18T14:57:29Z</time>
      </trkpt>
      <trkpt lat="45.77709" lon="5.45344">
        <ele>222.264</ele>
        <time>2016-06-18T14:57:40Z</time>
      </trkpt>
      <trkpt lat="45.77772" lon="5.4533">
        <ele>221.741</ele>
        <time>2016-06-18T14:57:58Z</time>
      </trkpt>
      <trkpt lat="45.77842" lon="5.45295">
        <ele>220.417</ele>
        <time>2016-06-18T14:58:18Z</time>
      </trkpt>
      <trkpt lat="45.77926" lon="5.45246">
        <ele>220.356</ele>
        <time>2016-06-18T14:58:41Z</time>
      </trkpt>
      <trkpt lat="45.77994" lon="5.45205">
        <ele>220.232</ele>
        <time>2016-06-18T14:58:58Z</time>
      </trkpt>
      <trkpt lat="45.77997" lon="5.45166">
        <ele>219.355</ele>
        <time>2016-06-18T14:59:06Z</time>
      </trkpt>
      <trkpt lat="45.78006" lon="5.45108">
        <ele>219.463</ele>
        <time>2016-06-18T14:59:19Z</time>
      </trkpt>
      <trkpt lat="45.78054" lon="5.45104">
        <ele>219.315</ele>
        <time>2016-06-18T14:59:32Z</time>
      </trkpt>
      <trkpt lat="45.78113" lon="5.45091">
        <ele>219.392</ele>
        <time>2016-06-18T14:59:48Z</time>
      </trkpt>
      <trkpt lat="45.78164" lon="5.45055">
        <ele>219.838</ele>
        <time>2016-06-18T15:00:05Z</time>
      </trkpt>
      <trkpt lat="45.78174" lon="5.45041">
        <ele>222.201</ele>
        <time>2016-06-18T15:00:21Z</time>
      </trkpt>
      <trkpt lat="45.78175" lon="5.45021">
        <ele>221.786</ele>
        <time>2016-06-18T15:02:17Z</time>
      </trkpt>
      <trkpt lat="45.78187" lon="5.45031">
        <ele>221.976</ele>
        <time>2016-06-18T15:02:21Z</time>
      </trkpt>
      <trkpt lat="45.78232" lon="5.45065">
        <ele>220.018</ele>
        <time>2016-06-18T15:02:32Z</time>
      </trkpt>
      <trkpt lat="45.78272" lon="5.45094">
        <ele>218.433</ele>
        <time>2016-06-18T15:02:44Z</time>
      </trkpt>
      <trkpt lat="45.78307" lon="5.45036">
        <ele>216.591</ele>
        <time>2016-06-18T15:02:54Z</time>
      </trkpt>
      <trkpt lat="45.78308" lon="5.4503">
        <ele>216.575</ele>
        <time>2016-06-18T15:02:55Z</time>
      </trkpt>
      <trkpt lat="45.78305" lon="5.45016">
        <ele>216.757</ele>
        <time>2016-06-18T15:02:59Z</time>
      </trkpt>
      <trkpt lat="45.78327" lon="5.44953">
        <ele>216.58</ele>
        <time>2016-06-18T15:03:15Z</time>
      </trkpt>
      <trkpt lat="45.78363" lon="5.44871">
        <ele>218.845</ele>
        <time>2016-06-18T15:03:38Z</time>
      </trkpt>
      <trkpt lat="45.78392" lon="5.44824">
        <ele>220.533</ele>
        <time>2016-06-18T15:03:56Z</time>
      </trkpt>
      <trkpt lat="45.7841" lon="5.44792">
        <ele>223.612</ele>
        <time>2016-06-18T15:04:10Z</time>
      </trkpt>
      <trkpt lat="45.78412" lon="5.44786">
        <ele>223.125</ele>
        <time>2016-06-18T15:04:13Z</time>
      </trkpt>
      <trkpt lat="45.78411" lon="5.44774">
        <ele>224.79</ele>
        <time>2016-06-18T15:04:24Z</time>
      </trkpt>
      <trkpt lat="45.7841" lon="5.44768">
        <ele>226.642</ele>
        <time>2016-06-18T15:04:40Z</time>
      </trkpt>
      <trkpt lat="45.78418" lon="5.44766">
        <ele>226.534</ele>
        <time>2016-06-18T15:09:06Z</time>
      </trkpt>
      <trkpt lat="45.78432" lon="5.44755">
        <ele>227.084</ele>
        <time>2016-06-18T15:09:14Z</time>
      </trkpt>
      <trkpt lat="45.78478" lon="5.44722">
        <ele>226.719</ele>
        <time>2016-06-18T15:09:31Z</time>
      </trkpt>
      <trkpt lat="45.78521" lon="5.4468">
        <ele>224.122</ele>
        <time>2016-06-18T15:09:45Z</time>
      </trkpt>
      <trkpt lat="45.78533" lon="5.44661">
        <ele>222.795</ele>
        <time>2016-06-18T15:09:48Z</time>
      </trkpt>
      <trkpt lat="45.78562" lon="5.4462">
        <ele>219.664</ele>
        <time>2016-06-18T15:09:55Z</time>
      </trkpt>
      <trkpt lat="45.78588" lon="5.44584">
        <ele>216.366</ele>
        <time>2016-06-18T15:10:02Z</time>
      </trkpt>
      <trkpt lat="45.78607" lon="5.4457">
        <ele>214.649</ele>
        <time>2016-06-18T15:10:06Z</time>
      </trkpt>
      <trkpt lat="45.7862" lon="5.44567">
        <ele>213.912</ele>
        <time>2016-06-18T15:10:08Z</time>
      </trkpt>
      <trkpt lat="45.78655" lon="5.44519">
        <ele>213.655</ele>
        <time>2016-06-18T15:10:18Z</time>
      </trkpt>
      <trkpt lat="45.78682" lon="5.44471">
        <ele>216.823</ele>
        <time>2016-06-18T15:10:31Z</time>
      </trkpt>
      <trkpt lat="45.78684" lon="5.44465">
        <ele>217.476</ele>
        <time>2016-06-18T15:10:33Z</time>
      </trkpt>
      <trkpt lat="45.78689" lon="5.44445">
        <ele>218.604</ele>
        <time>2016-06-18T15:10:39Z</time>
      </trkpt>
      <trkpt lat="45.7869" lon="5.44398">
        <ele>222.016</ele>
        <time>2016-06-18T15:10:50Z</time>
      </trkpt>
      <trkpt lat="45.78689" lon="5.44376">
        <ele>223.844</ele>
        <time>2016-06-18T15:10:54Z</time>
      </trkpt>
      <trkpt lat="45.78688" lon="5.44371">
        <ele>224.222</ele>
        <time>2016-06-18T15:10:55Z</time>
      </trkpt>
      <trkpt lat="45.78738" lon="5.44344">
        <ele>224.605</ele>
        <time>2016-06-18T15:27:00Z</time>
      </trkpt>
    </trkseg>
  </trk>
</gpx>